sensor_id;sensor_type;location;lat;lon;timestamp;P1;durP1;ratioP1;P2;durP2;ratioP2
71648;SDS011;59492;45.638;11.714;2023-04-03T00:01:05;4.60;;;3.00;;
71648;SDS011;59492;45.638;11.714;2023-04-03T00:03:31;4.60;;;2.80;;
71648;SDS011;59492;45.638;11.714;2023-04-03T00:05:57;4.90;;;3.40;;
71648;SDS011;59492;45.638;11.714;2023-04-03T00:08:23;5.20;;;3.40;;
71648;SDS011;59492;45.638;11.714;2023-04-03T00:10:48;4.00;;;2.90;;
71648;SDS011;59492;45.638;11.714;2023-04-03T00:13:14;4.40;;;3.30;;
71648;SDS011;59492;45.638;11.714;2023-04-03T00:15:40;3.60;;;3.00;;
71648;SDS011;59492;45.638;11.714;2023-04-03T00:18:06;4.10;;;3.30;;
71648;SDS011;59492;45.638;11.714;2023-04-03T00:20:32;4.70;;;3.00;;
71648;SDS011;59492;45.638;11.714;2023-04-03T00:22:58;5.30;;;3.90;;
71648;SDS011;59492;45.638;11.714;2023-04-03T00:25:24;4.60;;;3.70;;
71648;SDS011;59492;45.638;11.714;2023-04-03T00:27:49;4.20;;;3.30;;
71648;SDS011;59492;45.638;11.714;2023-04-03T00:30:17;4.00;;;3.10;;
71648;SDS011;59492;45.638;11.714;2023-04-03T00:32:43;4.50;;;3.30;;
71648;SDS011;59492;45.638;11.714;2023-04-03T00:35:09;4.50;;;3.10;;
71648;SDS011;59492;45.638;11.714;2023-04-03T00:37:35;4.30;;;3.00;;
71648;SDS011;59492;45.638;11.714;2023-04-03T00:40:02;5.60;;;3.00;;
71648;SDS011;59492;45.638;11.714;2023-04-03T00:42:28;3.90;;;3.30;;
71648;SDS011;59492;45.638;11.714;2023-04-03T00:47:22;4.70;;;3.60;;
71648;SDS011;59492;45.638;11.714;2023-04-03T00:49:48;4.00;;;3.20;;
71648;SDS011;59492;45.638;11.714;2023-04-03T00:52:16;4.70;;;3.90;;
71648;SDS011;59492;45.638;11.714;2023-04-03T00:54:43;4.50;;;3.60;;
71648;SDS011;59492;45.638;11.714;2023-04-03T00:57:09;3.60;;;3.10;;
71648;SDS011;59492;45.638;11.714;2023-04-03T00:59:38;4.30;;;3.20;;
71648;SDS011;59492;45.638;11.714;2023-04-03T01:02:06;4.60;;;3.60;;
71648;SDS011;59492;45.638;11.714;2023-04-03T01:04:35;4.00;;;3.50;;
71648;SDS011;59492;45.638;11.714;2023-04-03T01:07:05;5.80;;;3.90;;
71648;SDS011;59492;45.638;11.714;2023-04-03T01:09:33;5.10;;;3.80;;
71648;SDS011;59492;45.638;11.714;2023-04-03T01:12:13;4.30;;;3.60;;
71648;SDS011;59492;45.638;11.714;2023-04-03T01:14:46;3.50;;;3.10;;
71648;SDS011;59492;45.638;11.714;2023-04-03T01:17:26;5.40;;;3.40;;
71648;SDS011;59492;45.638;11.714;2023-04-03T01:19:57;5.30;;;3.40;;
71648;SDS011;59492;45.638;11.714;2023-04-03T01:25:22;4.00;;;3.30;;
71648;SDS011;59492;45.638;11.714;2023-04-03T01:27:48;5.10;;;3.40;;
71648;SDS011;59492;45.638;11.714;2023-04-03T01:30:14;4.10;;;2.90;;
71648;SDS011;59492;45.638;11.714;2023-04-03T01:32:42;6.00;;;3.10;;
71648;SDS011;59492;45.638;11.714;2023-04-03T01:35:08;4.00;;;3.50;;
71648;SDS011;59492;45.638;11.714;2023-04-03T01:37:35;3.70;;;3.30;;
71648;SDS011;59492;45.638;11.714;2023-04-03T01:40:00;4.00;;;3.40;;
71648;SDS011;59492;45.638;11.714;2023-04-03T01:42:26;4.60;;;2.90;;
71648;SDS011;59492;45.638;11.714;2023-04-03T01:44:52;4.10;;;3.00;;
71648;SDS011;59492;45.638;11.714;2023-04-03T01:47:17;4.40;;;3.30;;
71648;SDS011;59492;45.638;11.714;2023-04-03T01:49:43;4.80;;;3.10;;
71648;SDS011;59492;45.638;11.714;2023-04-03T01:52:08;4.40;;;3.30;;
71648;SDS011;59492;45.638;11.714;2023-04-03T01:54:34;5.00;;;3.30;;
71648;SDS011;59492;45.638;11.714;2023-04-03T01:56:59;3.70;;;3.10;;
71648;SDS011;59492;45.638;11.714;2023-04-03T01:59:25;3.70;;;3.20;;
71648;SDS011;59492;45.638;11.714;2023-04-03T02:01:51;4.80;;;3.50;;
71648;SDS011;59492;45.638;11.714;2023-04-03T02:04:16;4.80;;;3.80;;
71648;SDS011;59492;45.638;11.714;2023-04-03T02:06:42;4.10;;;3.70;;
71648;SDS011;59492;45.638;11.714;2023-04-03T02:09:07;4.20;;;3.20;;
71648;SDS011;59492;45.638;11.714;2023-04-03T02:11:33;4.60;;;3.40;;
71648;SDS011;59492;45.638;11.714;2023-04-03T02:13:58;3.90;;;2.70;;
71648;SDS011;59492;45.638;11.714;2023-04-03T02:16:24;3.60;;;2.90;;
71648;SDS011;59492;45.638;11.714;2023-04-03T02:18:49;3.80;;;3.10;;
71648;SDS011;59492;45.638;11.714;2023-04-03T02:21:16;3.40;;;2.90;;
71648;SDS011;59492;45.638;11.714;2023-04-03T02:23:41;5.70;;;3.50;;
71648;SDS011;59492;45.638;11.714;2023-04-03T02:26:08;4.10;;;3.30;;
71648;SDS011;59492;45.638;11.714;2023-04-03T02:28:36;5.90;;;3.60;;
71648;SDS011;59492;45.638;11.714;2023-04-03T02:31:02;3.50;;;3.20;;
71648;SDS011;59492;45.638;11.714;2023-04-03T02:33:28;3.40;;;3.00;;
71648;SDS011;59492;45.638;11.714;2023-04-03T02:35:54;4.30;;;3.30;;
71648;SDS011;59492;45.638;11.714;2023-04-03T02:38:20;3.70;;;3.30;;
71648;SDS011;59492;45.638;11.714;2023-04-03T02:40:46;4.00;;;3.30;;
71648;SDS011;59492;45.638;11.714;2023-04-03T02:43:12;3.80;;;3.30;;
71648;SDS011;59492;45.638;11.714;2023-04-03T02:45:37;4.40;;;3.80;;
71648;SDS011;59492;45.638;11.714;2023-04-03T02:48:03;3.20;;;2.90;;
71648;SDS011;59492;45.638;11.714;2023-04-03T02:50:29;3.70;;;3.30;;
71648;SDS011;59492;45.638;11.714;2023-04-03T02:52:54;3.90;;;3.50;;
71648;SDS011;59492;45.638;11.714;2023-04-03T02:55:20;4.00;;;3.60;;
71648;SDS011;59492;45.638;11.714;2023-04-03T02:57:46;3.80;;;3.30;;
71648;SDS011;59492;45.638;11.714;2023-04-03T03:00:11;4.10;;;3.50;;
71648;SDS011;59492;45.638;11.714;2023-04-03T03:02:37;4.30;;;3.30;;
71648;SDS011;59492;45.638;11.714;2023-04-03T03:05:03;3.90;;;3.10;;
71648;SDS011;59492;45.638;11.714;2023-04-03T03:07:29;5.60;;;3.00;;
71648;SDS011;59492;45.638;11.714;2023-04-03T03:09:55;3.80;;;3.00;;
71648;SDS011;59492;45.638;11.714;2023-04-03T03:12:20;3.40;;;3.00;;
71648;SDS011;59492;45.638;11.714;2023-04-03T03:14:47;3.80;;;2.90;;
71648;SDS011;59492;45.638;11.714;2023-04-03T03:17:13;2.90;;;2.60;;
71648;SDS011;59492;45.638;11.714;2023-04-03T03:19:39;3.20;;;2.90;;
71648;SDS011;59492;45.638;11.714;2023-04-03T03:22:04;4.20;;;3.20;;
71648;SDS011;59492;45.638;11.714;2023-04-03T03:24:30;4.60;;;3.10;;
71648;SDS011;59492;45.638;11.714;2023-04-03T03:26:55;3.20;;;2.80;;
71648;SDS011;59492;45.638;11.714;2023-04-03T03:29:21;3.70;;;2.60;;
71648;SDS011;59492;45.638;11.714;2023-04-03T03:31:47;4.80;;;3.30;;
71648;SDS011;59492;45.638;11.714;2023-04-03T03:34:12;3.30;;;2.80;;
71648;SDS011;59492;45.638;11.714;2023-04-03T03:36:38;3.00;;;2.70;;
71648;SDS011;59492;45.638;11.714;2023-04-03T03:39:04;3.50;;;2.90;;
71648;SDS011;59492;45.638;11.714;2023-04-03T03:41:30;3.10;;;2.80;;
71648;SDS011;59492;45.638;11.714;2023-04-03T03:43:57;4.10;;;2.50;;
71648;SDS011;59492;45.638;11.714;2023-04-03T03:46:23;3.90;;;3.00;;
71648;SDS011;59492;45.638;11.714;2023-04-03T03:48:49;4.00;;;2.80;;
71648;SDS011;59492;45.638;11.714;2023-04-03T03:51:14;3.30;;;2.70;;
71648;SDS011;59492;45.638;11.714;2023-04-03T03:53:40;3.30;;;3.00;;
71648;SDS011;59492;45.638;11.714;2023-04-03T03:56:06;3.20;;;2.80;;
71648;SDS011;59492;45.638;11.714;2023-04-03T03:58:32;4.10;;;2.80;;
71648;SDS011;59492;45.638;11.714;2023-04-03T04:01:02;3.30;;;2.70;;
71648;SDS011;59492;45.638;11.714;2023-04-03T04:03:30;2.90;;;2.50;;
71648;SDS011;59492;45.638;11.714;2023-04-03T04:05:56;2.50;;;2.30;;
71648;SDS011;59492;45.638;11.714;2023-04-03T04:08:23;3.70;;;2.80;;
71648;SDS011;59492;45.638;11.714;2023-04-03T04:10:49;4.80;;;3.00;;
71648;SDS011;59492;45.638;11.714;2023-04-03T04:13:15;3.40;;;2.80;;
71648;SDS011;59492;45.638;11.714;2023-04-03T04:15:42;3.40;;;2.50;;
71648;SDS011;59492;45.638;11.714;2023-04-03T04:18:08;3.50;;;2.60;;
71648;SDS011;59492;45.638;11.714;2023-04-03T04:20:34;2.80;;;2.50;;
71648;SDS011;59492;45.638;11.714;2023-04-03T04:22:59;2.90;;;2.60;;
71648;SDS011;59492;45.638;11.714;2023-04-03T04:25:25;3.10;;;2.70;;
71648;SDS011;59492;45.638;11.714;2023-04-03T04:27:51;4.10;;;3.00;;
71648;SDS011;59492;45.638;11.714;2023-04-03T04:30:18;3.70;;;2.50;;
71648;SDS011;59492;45.638;11.714;2023-04-03T04:32:45;3.90;;;2.80;;
71648;SDS011;59492;45.638;11.714;2023-04-03T04:35:12;3.10;;;2.70;;
71648;SDS011;59492;45.638;11.714;2023-04-03T04:37:37;2.80;;;2.50;;
71648;SDS011;59492;45.638;11.714;2023-04-03T04:40:04;3.30;;;2.50;;
71648;SDS011;59492;45.638;11.714;2023-04-03T04:42:31;3.40;;;2.50;;
71648;SDS011;59492;45.638;11.714;2023-04-03T04:44:56;3.00;;;2.50;;
71648;SDS011;59492;45.638;11.714;2023-04-03T04:47:22;4.90;;;2.80;;
71648;SDS011;59492;45.638;11.714;2023-04-03T04:49:48;3.00;;;2.70;;
71648;SDS011;59492;45.638;11.714;2023-04-03T04:52:13;2.80;;;2.50;;
71648;SDS011;59492;45.638;11.714;2023-04-03T04:54:39;3.60;;;2.50;;
71648;SDS011;59492;45.638;11.714;2023-04-03T04:57:05;2.80;;;2.30;;
71648;SDS011;59492;45.638;11.714;2023-04-03T04:59:31;2.40;;;2.20;;
71648;SDS011;59492;45.638;11.714;2023-04-03T05:02:01;3.40;;;2.60;;
71648;SDS011;59492;45.638;11.714;2023-04-03T05:04:28;2.70;;;2.10;;
71648;SDS011;59492;45.638;11.714;2023-04-03T05:06:55;2.70;;;2.30;;
71648;SDS011;59492;45.638;11.714;2023-04-03T05:09:21;2.80;;;2.40;;
71648;SDS011;59492;45.638;11.714;2023-04-03T05:11:47;2.80;;;2.50;;
71648;SDS011;59492;45.638;11.714;2023-04-03T05:14:13;3.80;;;2.60;;
71648;SDS011;59492;45.638;11.714;2023-04-03T05:16:39;2.70;;;2.30;;
71648;SDS011;59492;45.638;11.714;2023-04-03T05:19:04;3.10;;;2.40;;
71648;SDS011;59492;45.638;11.714;2023-04-03T05:21:30;3.10;;;2.50;;
71648;SDS011;59492;45.638;11.714;2023-04-03T05:24:00;3.20;;;2.40;;
71648;SDS011;59492;45.638;11.714;2023-04-03T05:26:28;4.20;;;2.50;;
71648;SDS011;59492;45.638;11.714;2023-04-03T05:28:55;2.70;;;2.20;;
71648;SDS011;59492;45.638;11.714;2023-04-03T05:31:20;3.30;;;2.50;;
71648;SDS011;59492;45.638;11.714;2023-04-03T05:33:46;3.60;;;2.30;;
71648;SDS011;59492;45.638;11.714;2023-04-03T05:36:13;14.40;;;2.90;;
71648;SDS011;59492;45.638;11.714;2023-04-03T05:38:38;3.90;;;2.40;;
71648;SDS011;59492;45.638;11.714;2023-04-03T05:41:04;2.90;;;2.40;;
71648;SDS011;59492;45.638;11.714;2023-04-03T05:43:30;2.50;;;2.30;;
71648;SDS011;59492;45.638;11.714;2023-04-03T05:45:55;4.40;;;2.80;;
71648;SDS011;59492;45.638;11.714;2023-04-03T05:48:21;4.70;;;2.50;;
71648;SDS011;59492;45.638;11.714;2023-04-03T05:50:46;5.80;;;2.40;;
71648;SDS011;59492;45.638;11.714;2023-04-03T05:53:14;3.30;;;2.50;;
71648;SDS011;59492;45.638;11.714;2023-04-03T05:55:43;3.50;;;2.50;;
71648;SDS011;59492;45.638;11.714;2023-04-03T05:58:08;2.70;;;2.40;;
71648;SDS011;59492;45.638;11.714;2023-04-03T06:00:34;8.50;;;2.90;;
71648;SDS011;59492;45.638;11.714;2023-04-03T06:02:59;3.50;;;2.40;;
71648;SDS011;59492;45.638;11.714;2023-04-03T06:05:25;3.30;;;2.50;;
71648;SDS011;59492;45.638;11.714;2023-04-03T06:07:50;8.20;;;2.70;;
71648;SDS011;59492;45.638;11.714;2023-04-03T06:10:16;2.70;;;2.30;;
71648;SDS011;59492;45.638;11.714;2023-04-03T06:12:42;3.30;;;2.50;;
71648;SDS011;59492;45.638;11.714;2023-04-03T06:15:08;3.00;;;2.70;;
71648;SDS011;59492;45.638;11.714;2023-04-03T06:17:35;4.40;;;2.50;;
71648;SDS011;59492;45.638;11.714;2023-04-03T06:20:02;5.10;;;2.80;;
71648;SDS011;59492;45.638;11.714;2023-04-03T06:22:28;6.10;;;2.50;;
71648;SDS011;59492;45.638;11.714;2023-04-03T06:24:55;2.60;;;2.20;;
71648;SDS011;59492;45.638;11.714;2023-04-03T06:27:21;4.80;;;2.00;;
71648;SDS011;59492;45.638;11.714;2023-04-03T06:29:47;5.20;;;2.40;;
71648;SDS011;59492;45.638;11.714;2023-04-03T06:32:17;5.10;;;2.20;;
71648;SDS011;59492;45.638;11.714;2023-04-03T06:34:48;9.30;;;2.30;;
71648;SDS011;59492;45.638;11.714;2023-04-03T06:37:20;2.70;;;2.30;;
71648;SDS011;59492;45.638;11.714;2023-04-03T06:39:51;3.20;;;2.00;;
71648;SDS011;59492;45.638;11.714;2023-04-03T06:42:20;2.80;;;2.40;;
71648;SDS011;59492;45.638;11.714;2023-04-03T06:45:01;5.30;;;2.00;;
71648;SDS011;59492;45.638;11.714;2023-04-03T06:47:36;3.20;;;2.00;;
71648;SDS011;59492;45.638;11.714;2023-04-03T06:50:12;2.60;;;2.00;;
71648;SDS011;59492;45.638;11.714;2023-04-03T06:52:41;2.70;;;1.80;;
71648;SDS011;59492;45.638;11.714;2023-04-03T06:55:08;3.70;;;2.20;;
71648;SDS011;59492;45.638;11.714;2023-04-03T06:57:38;6.00;;;2.10;;
71648;SDS011;59492;45.638;11.714;2023-04-03T07:00:04;2.40;;;1.80;;
71648;SDS011;59492;45.638;11.714;2023-04-03T07:02:33;3.30;;;2.30;;
71648;SDS011;59492;45.638;11.714;2023-04-03T07:05:08;3.70;;;1.60;;
71648;SDS011;59492;45.638;11.714;2023-04-03T07:07:35;3.00;;;2.00;;
71648;SDS011;59492;45.638;11.714;2023-04-03T07:10:05;3.80;;;2.00;;
71648;SDS011;59492;45.638;11.714;2023-04-03T07:12:36;3.50;;;2.00;;
71648;SDS011;59492;45.638;11.714;2023-04-03T07:15:05;2.00;;;1.70;;
71648;SDS011;59492;45.638;11.714;2023-04-03T07:17:33;4.20;;;1.80;;
71648;SDS011;59492;45.638;11.714;2023-04-03T07:20:01;14.40;;;2.20;;
71648;SDS011;59492;45.638;11.714;2023-04-03T07:22:30;5.50;;;2.10;;
71648;SDS011;59492;45.638;11.714;2023-04-03T07:24:56;4.80;;;2.20;;
71648;SDS011;59492;45.638;11.714;2023-04-03T07:27:21;3.30;;;2.20;;
71648;SDS011;59492;45.638;11.714;2023-04-03T07:29:47;7.10;;;2.10;;
71648;SDS011;59492;45.638;11.714;2023-04-03T07:32:16;6.00;;;2.00;;
71648;SDS011;59492;45.638;11.714;2023-04-03T07:34:43;4.10;;;2.40;;
71648;SDS011;59492;45.638;11.714;2023-04-03T07:37:09;8.80;;;2.60;;
71648;SDS011;59492;45.638;11.714;2023-04-03T07:39:35;2.80;;;1.90;;
71648;SDS011;59492;45.638;11.714;2023-04-03T07:42:00;4.10;;;2.10;;
71648;SDS011;59492;45.638;11.714;2023-04-03T07:44:27;3.70;;;2.10;;
71648;SDS011;59492;45.638;11.714;2023-04-03T07:46:53;4.10;;;2.50;;
71648;SDS011;59492;45.638;11.714;2023-04-03T07:49:20;2.50;;;1.60;;
71648;SDS011;59492;45.638;11.714;2023-04-03T07:51:48;6.30;;;2.20;;
71648;SDS011;59492;45.638;11.714;2023-04-03T07:54:14;3.70;;;1.90;;
71648;SDS011;59492;45.638;11.714;2023-04-03T07:56:40;10.80;;;2.20;;
71648;SDS011;59492;45.638;11.714;2023-04-03T07:59:08;4.10;;;2.10;;
71648;SDS011;59492;45.638;11.714;2023-04-03T08:01:34;3.80;;;1.90;;
71648;SDS011;59492;45.638;11.714;2023-04-03T08:03:59;4.70;;;2.30;;
71648;SDS011;59492;45.638;11.714;2023-04-03T08:06:25;4.40;;;1.90;;
71648;SDS011;59492;45.638;11.714;2023-04-03T08:08:51;3.70;;;1.90;;
71648;SDS011;59492;45.638;11.714;2023-04-03T08:11:17;5.80;;;2.30;;
71648;SDS011;59492;45.638;11.714;2023-04-03T08:13:44;4.50;;;1.90;;
71648;SDS011;59492;45.638;11.714;2023-04-03T08:16:13;4.70;;;1.80;;
71648;SDS011;59492;45.638;11.714;2023-04-03T08:18:41;4.60;;;1.90;;
71648;SDS011;59492;45.638;11.714;2023-04-03T08:21:10;3.40;;;1.90;;
71648;SDS011;59492;45.638;11.714;2023-04-03T08:23:37;3.00;;;1.50;;
71648;SDS011;59492;45.638;11.714;2023-04-03T08:26:10;6.00;;;2.10;;
71648;SDS011;59492;45.638;11.714;2023-04-03T08:28:37;5.20;;;1.70;;
71648;SDS011;59492;45.638;11.714;2023-04-03T08:31:04;3.80;;;2.20;;
71648;SDS011;59492;45.638;11.714;2023-04-03T08:33:31;2.30;;;1.70;;
71648;SDS011;59492;45.638;11.714;2023-04-03T08:35:57;3.20;;;1.90;;
71648;SDS011;59492;45.638;11.714;2023-04-03T08:38:23;3.80;;;1.80;;
71648;SDS011;59492;45.638;11.714;2023-04-03T08:40:59;3.30;;;2.00;;
71648;SDS011;59492;45.638;11.714;2023-04-03T08:43:54;4.30;;;2.10;;
71648;SDS011;59492;45.638;11.714;2023-04-03T08:46:47;3.70;;;1.70;;
71648;SDS011;59492;45.638;11.714;2023-04-03T08:49:38;5.40;;;1.90;;
71648;SDS011;59492;45.638;11.714;2023-04-03T08:52:10;3.80;;;2.00;;
71648;SDS011;59492;45.638;11.714;2023-04-03T08:54:43;4.30;;;1.60;;
71648;SDS011;59492;45.638;11.714;2023-04-03T08:57:17;4.30;;;2.00;;
71648;SDS011;59492;45.638;11.714;2023-04-03T08:59:49;2.80;;;1.60;;
71648;SDS011;59492;45.638;11.714;2023-04-03T09:02:22;3.90;;;1.70;;
71648;SDS011;59492;45.638;11.714;2023-04-03T09:04:51;2.90;;;1.80;;
71648;SDS011;59492;45.638;11.714;2023-04-03T09:07:23;6.20;;;2.10;;
71648;SDS011;59492;45.638;11.714;2023-04-03T09:09:56;3.00;;;1.80;;
71648;SDS011;59492;45.638;11.714;2023-04-03T09:12:34;3.50;;;1.90;;
71648;SDS011;59492;45.638;11.714;2023-04-03T09:17:41;3.10;;;1.60;;
71648;SDS011;59492;45.638;11.714;2023-04-03T09:20:27;4.50;;;1.90;;
71648;SDS011;59492;45.638;11.714;2023-04-03T09:23:17;4.00;;;1.80;;
71648;SDS011;59492;45.638;11.714;2023-04-03T09:25:46;5.00;;;2.00;;
71648;SDS011;59492;45.638;11.714;2023-04-03T09:28:14;6.50;;;2.00;;
71648;SDS011;59492;45.638;11.714;2023-04-03T09:30:40;5.20;;;2.00;;
71648;SDS011;59492;45.638;11.714;2023-04-03T09:33:06;3.30;;;1.70;;
71648;SDS011;59492;45.638;11.714;2023-04-03T09:35:33;4.00;;;2.10;;
71648;SDS011;59492;45.638;11.714;2023-04-03T09:40:36;5.10;;;1.70;;
71648;SDS011;59492;45.638;11.714;2023-04-03T09:45:42;13.10;;;2.30;;
71648;SDS011;59492;45.638;11.714;2023-04-03T09:53:37;5.90;;;2.20;;
71648;SDS011;59492;45.638;11.714;2023-04-03T09:56:10;13.40;;;2.30;;
71648;SDS011;59492;45.638;11.714;2023-04-03T09:58:47;14.90;;;2.00;;
71648;SDS011;59492;45.638;11.714;2023-04-03T10:06:37;4.40;;;2.20;;
71648;SDS011;59492;45.638;11.714;2023-04-03T10:12:05;3.20;;;1.60;;
71648;SDS011;59492;45.638;11.714;2023-04-03T10:15:10;4.50;;;1.80;;
71648;SDS011;59492;45.638;11.714;2023-04-03T10:23:17;7.10;;;2.50;;
71648;SDS011;59492;45.638;11.714;2023-04-03T10:34:21;6.30;;;2.20;;
71648;SDS011;59492;45.638;11.714;2023-04-03T10:36:43;6.90;;;2.50;;
71648;SDS011;59492;45.638;11.714;2023-04-03T10:42:25;6.20;;;2.30;;
71648;SDS011;59492;45.638;11.714;2023-04-03T10:45:00;11.90;;;2.80;;
71648;SDS011;59492;45.638;11.714;2023-04-03T10:53:22;5.90;;;2.40;;
71648;SDS011;59492;45.638;11.714;2023-04-03T10:58:40;8.90;;;3.00;;
71648;SDS011;59492;45.638;11.714;2023-04-03T11:01:10;5.50;;;2.30;;
71648;SDS011;59492;45.638;11.714;2023-04-03T11:03:43;3.90;;;1.80;;
71648;SDS011;59492;45.638;11.714;2023-04-03T11:06:11;5.00;;;2.70;;
71648;SDS011;59492;45.638;11.714;2023-04-03T11:08:50;4.80;;;2.10;;
71648;SDS011;59492;45.638;11.714;2023-04-03T11:11:23;5.50;;;2.30;;
71648;SDS011;59492;45.638;11.714;2023-04-03T11:14:09;5.20;;;2.30;;
71648;SDS011;59492;45.638;11.714;2023-04-03T11:22:21;4.70;;;2.00;;
71648;SDS011;59492;45.638;11.714;2023-04-03T11:25:08;4.60;;;2.00;;
71648;SDS011;59492;45.638;11.714;2023-04-03T11:27:55;5.00;;;2.20;;
71648;SDS011;59492;45.638;11.714;2023-04-03T11:30:31;9.80;;;2.30;;
71648;SDS011;59492;45.638;11.714;2023-04-03T11:33:12;3.30;;;2.10;;
71648;SDS011;59492;45.638;11.714;2023-04-03T11:35:47;7.60;;;2.70;;
71648;SDS011;59492;45.638;11.714;2023-04-03T11:38:21;3.20;;;1.70;;
71648;SDS011;59492;45.638;11.714;2023-04-03T11:40:51;3.60;;;2.10;;
71648;SDS011;59492;45.638;11.714;2023-04-03T11:43:30;6.60;;;2.20;;
71648;SDS011;59492;45.638;11.714;2023-04-03T11:46:06;6.70;;;2.10;;
71648;SDS011;59492;45.638;11.714;2023-04-03T11:48:45;5.70;;;2.10;;
71648;SDS011;59492;45.638;11.714;2023-04-03T12:05:54;5.60;;;2.00;;
71648;SDS011;59492;45.638;11.714;2023-04-03T12:16:27;4.10;;;2.00;;
71648;SDS011;59492;45.638;11.714;2023-04-03T12:29:50;4.50;;;2.00;;
71648;SDS011;59492;45.638;11.714;2023-04-03T12:41:19;4.20;;;1.90;;
71648;SDS011;59492;45.638;11.714;2023-04-03T12:46:39;3.20;;;1.90;;
71648;SDS011;59492;45.638;11.714;2023-04-03T12:55:00;2.60;;;1.60;;
71648;SDS011;59492;45.638;11.714;2023-04-03T12:57:29;3.10;;;1.90;;
71648;SDS011;59492;45.638;11.714;2023-04-03T12:59:55;5.00;;;1.70;;
71648;SDS011;59492;45.638;11.714;2023-04-03T13:02:23;3.90;;;1.70;;
71648;SDS011;59492;45.638;11.714;2023-04-03T13:04:49;3.10;;;1.90;;
71648;SDS011;59492;45.638;11.714;2023-04-03T13:07:24;3.80;;;1.80;;
71648;SDS011;59492;45.638;11.714;2023-04-03T13:10:35;3.90;;;1.80;;
71648;SDS011;59492;45.638;11.714;2023-04-03T13:12:46;2.90;;;1.60;;
71648;SDS011;59492;45.638;11.714;2023-04-03T13:15:19;5.30;;;2.00;;
71648;SDS011;59492;45.638;11.714;2023-04-03T13:17:47;1.80;;;1.60;;
71648;SDS011;59492;45.638;11.714;2023-04-03T13:20:18;3.50;;;1.80;;
71648;SDS011;59492;45.638;11.714;2023-04-03T13:22:48;3.80;;;1.80;;
71648;SDS011;59492;45.638;11.714;2023-04-03T13:25:17;2.50;;;1.90;;
71648;SDS011;59492;45.638;11.714;2023-04-03T13:27:45;3.30;;;1.90;;
71648;SDS011;59492;45.638;11.714;2023-04-03T13:30:21;2.70;;;1.80;;
71648;SDS011;59492;45.638;11.714;2023-04-03T13:32:51;3.80;;;2.00;;
71648;SDS011;59492;45.638;11.714;2023-04-03T13:38:04;2.80;;;1.50;;
71648;SDS011;59492;45.638;11.714;2023-04-03T13:40:50;2.00;;;1.60;;
71648;SDS011;59492;45.638;11.714;2023-04-03T13:43:26;3.20;;;1.70;;
71648;SDS011;59492;45.638;11.714;2023-04-03T13:46:05;4.10;;;1.60;;
71648;SDS011;59492;45.638;11.714;2023-04-03T13:48:48;2.70;;;1.70;;
71648;SDS011;59492;45.638;11.714;2023-04-03T13:51:18;3.50;;;1.50;;
71648;SDS011;59492;45.638;11.714;2023-04-03T13:54:00;2.40;;;1.50;;
71648;SDS011;59492;45.638;11.714;2023-04-03T13:56:37;5.30;;;1.80;;
71648;SDS011;59492;45.638;11.714;2023-04-03T14:01:46;2.20;;;1.50;;
71648;SDS011;59492;45.638;11.714;2023-04-03T14:04:19;2.60;;;1.70;;
71648;SDS011;59492;45.638;11.714;2023-04-03T14:06:55;1.80;;;1.50;;
71648;SDS011;59492;45.638;11.714;2023-04-03T14:09:22;2.20;;;1.90;;
71648;SDS011;59492;45.638;11.714;2023-04-03T14:11:49;2.20;;;1.50;;
71648;SDS011;59492;45.638;11.714;2023-04-03T14:14:22;3.40;;;1.60;;
71648;SDS011;59492;45.638;11.714;2023-04-03T14:16:51;3.60;;;1.50;;
71648;SDS011;59492;45.638;11.714;2023-04-03T14:21:51;2.00;;;1.70;;
71648;SDS011;59492;45.638;11.714;2023-04-03T14:24:18;3.30;;;1.50;;
71648;SDS011;59492;45.638;11.714;2023-04-03T14:26:44;2.30;;;1.50;;
71648;SDS011;59492;45.638;11.714;2023-04-03T14:29:11;5.80;;;1.30;;
71648;SDS011;59492;45.638;11.714;2023-04-03T14:31:38;2.20;;;1.60;;
71648;SDS011;59492;45.638;11.714;2023-04-03T14:34:05;2.20;;;1.80;;
71648;SDS011;59492;45.638;11.714;2023-04-03T14:36:31;2.40;;;1.50;;
71648;SDS011;59492;45.638;11.714;2023-04-03T14:38:58;1.90;;;1.70;;
71648;SDS011;59492;45.638;11.714;2023-04-03T14:41:25;4.60;;;1.50;;
71648;SDS011;59492;45.638;11.714;2023-04-03T14:43:51;2.40;;;1.60;;
71648;SDS011;59492;45.638;11.714;2023-04-03T14:48:46;2.80;;;1.50;;
71648;SDS011;59492;45.638;11.714;2023-04-03T14:51:13;2.20;;;1.40;;
71648;SDS011;59492;45.638;11.714;2023-04-03T14:53:40;2.30;;;1.50;;
71648;SDS011;59492;45.638;11.714;2023-04-03T14:56:17;2.00;;;1.40;;
71648;SDS011;59492;45.638;11.714;2023-04-03T14:58:47;2.10;;;1.30;;
71648;SDS011;59492;45.638;11.714;2023-04-03T15:01:16;3.40;;;1.40;;
71648;SDS011;59492;45.638;11.714;2023-04-03T15:03:42;4.70;;;1.60;;
71648;SDS011;59492;45.638;11.714;2023-04-03T15:06:11;2.50;;;1.70;;
71648;SDS011;59492;45.638;11.714;2023-04-03T15:08:37;2.80;;;1.40;;
71648;SDS011;59492;45.638;11.714;2023-04-03T15:11:03;3.30;;;1.40;;
71648;SDS011;59492;45.638;11.714;2023-04-03T15:13:30;4.60;;;1.40;;
71648;SDS011;59492;45.638;11.714;2023-04-03T15:15:57;1.80;;;1.40;;
71648;SDS011;59492;45.638;11.714;2023-04-03T15:18:24;4.70;;;1.70;;
71648;SDS011;59492;45.638;11.714;2023-04-03T15:20:52;4.50;;;1.50;;
71648;SDS011;59492;45.638;11.714;2023-04-03T15:23:18;2.80;;;1.40;;
71648;SDS011;59492;45.638;11.714;2023-04-03T15:25:46;2.70;;;1.50;;
71648;SDS011;59492;45.638;11.714;2023-04-03T15:31:06;3.00;;;1.60;;
71648;SDS011;59492;45.638;11.714;2023-04-03T15:33:33;4.30;;;1.70;;
71648;SDS011;59492;45.638;11.714;2023-04-03T15:35:59;3.40;;;1.70;;
71648;SDS011;59492;45.638;11.714;2023-04-03T15:38:25;4.50;;;1.40;;
71648;SDS011;59492;45.638;11.714;2023-04-03T15:40:51;4.80;;;1.70;;
71648;SDS011;59492;45.638;11.714;2023-04-03T15:43:17;4.80;;;1.60;;
71648;SDS011;59492;45.638;11.714;2023-04-03T15:45:43;1.70;;;1.20;;
71648;SDS011;59492;45.638;11.714;2023-04-03T15:48:09;5.30;;;1.40;;
71648;SDS011;59492;45.638;11.714;2023-04-03T15:50:36;4.30;;;1.50;;
71648;SDS011;59492;45.638;11.714;2023-04-03T15:53:01;3.80;;;1.70;;
71648;SDS011;59492;45.638;11.714;2023-04-03T15:55:28;4.40;;;1.20;;
71648;SDS011;59492;45.638;11.714;2023-04-03T15:57:55;4.70;;;1.40;;
71648;SDS011;59492;45.638;11.714;2023-04-03T16:00:21;2.30;;;1.50;;
71648;SDS011;59492;45.638;11.714;2023-04-03T16:02:48;3.90;;;1.50;;
71648;SDS011;59492;45.638;11.714;2023-04-03T16:05:17;3.10;;;1.30;;
71648;SDS011;59492;45.638;11.714;2023-04-03T16:07:46;1.70;;;1.40;;
71648;SDS011;59492;45.638;11.714;2023-04-03T16:10:12;3.20;;;1.40;;
71648;SDS011;59492;45.638;11.714;2023-04-03T16:12:39;2.70;;;1.70;;
71648;SDS011;59492;45.638;11.714;2023-04-03T16:15:05;2.40;;;1.40;;
71648;SDS011;59492;45.638;11.714;2023-04-03T16:17:32;4.70;;;1.70;;
71648;SDS011;59492;45.638;11.714;2023-04-03T16:19:58;2.30;;;1.30;;
71648;SDS011;59492;45.638;11.714;2023-04-03T16:22:25;3.20;;;1.50;;
71648;SDS011;59492;45.638;11.714;2023-04-03T16:24:51;7.10;;;1.50;;
71648;SDS011;59492;45.638;11.714;2023-04-03T16:27:17;3.00;;;1.50;;
71648;SDS011;59492;45.638;11.714;2023-04-03T16:29:43;2.90;;;1.50;;
71648;SDS011;59492;45.638;11.714;2023-04-03T16:32:11;1.90;;;1.30;;
71648;SDS011;59492;45.638;11.714;2023-04-03T16:34:37;5.50;;;1.30;;
71648;SDS011;59492;45.638;11.714;2023-04-03T16:37:03;4.00;;;1.50;;
71648;SDS011;59492;45.638;11.714;2023-04-03T16:39:28;4.20;;;1.30;;
71648;SDS011;59492;45.638;11.714;2023-04-03T16:41:54;2.80;;;1.50;;
71648;SDS011;59492;45.638;11.714;2023-04-03T16:44:20;3.30;;;1.30;;